createdAt,value
2018-09-01T00:00:41.386Z,0.00
2018-09-01T00:01:41.392Z,0.00
2018-09-01T00:02:41.351Z,0.00
2018-09-01T00:03:41.325Z,0.00
2018-09-01T00:04:41.307Z,0.00
2018-09-01T00:05:41.287Z,0.00
2018-09-01T00:06:41.344Z,0.00
2018-09-01T00:07:41.266Z,0.00
2018-09-01T00:08:41.227Z,0.00
2018-09-01T00:09:41.219Z,0.00
2018-09-01T00:10:41.194Z,0.00
2018-09-01T00:11:41.166Z,0.00
2018-09-01T00:12:41.160Z,0.00
2018-09-01T00:13:41.127Z,0.00
2018-09-01T00:14:41.103Z,0.00
2018-09-01T00:15:41.082Z,0.00
2018-09-01T00:16:41.063Z,0.00
2018-09-01T00:17:41.055Z,0.00
2018-09-01T00:18:41.026Z,0.00
2018-09-01T00:19:41.007Z,0.00
2018-09-01T00:20:40.989Z,0.00
2018-09-01T00:21:40.972Z,0.00
2018-09-01T00:22:40.956Z,0.00
2018-09-01T00:23:40.934Z,0.00
2018-09-01T00:24:40.903Z,0.00
2018-09-01T00:25:40.888Z,0.00
2018-09-01T00:26:40.863Z,0.00
2018-09-01T00:27:40.844Z,0.00
2018-09-01T00:28:40.833Z,0.00
2018-09-01T00:29:40.805Z,0.00
2018-09-01T00:30:40.874Z,0.00
2018-09-01T00:31:40.764Z,0.00
2018-09-01T00:32:40.741Z,0.00
2018-09-01T00:33:40.739Z,0.00
2018-09-01T00:34:40.702Z,0.00
2018-09-01T00:35:40.682Z,0.00
2018-09-01T00:36:40.665Z,0.00
2018-09-01T00:37:40.648Z,0.00
2018-09-01T00:38:40.627Z,0.00
2018-09-01T00:39:40.609Z,0.00
2018-09-01T00:40:40.597Z,0.00
2018-09-01T00:41:40.559Z,0.00
2018-09-01T00:42:40.540Z,0.00
2018-09-01T00:43:40.527Z,0.00
2018-09-01T00:44:40.513Z,0.00
2018-09-01T00:45:40.479Z,0.00
2018-09-01T00:46:40.458Z,0.00
2018-09-01T00:47:40.442Z,0.00
2018-09-01T00:48:40.419Z,0.00
2018-09-01T00:49:40.414Z,0.00
2018-09-01T00:50:40.378Z,0.00
2018-09-01T00:51:40.360Z,0.00
2018-09-01T00:52:40.356Z,0.00
2018-09-01T00:53:40.332Z,0.00
2018-09-01T00:54:40.296Z,0.00
2018-09-01T00:55:40.290Z,0.00
2018-09-01T00:56:40.258Z,0.00
2018-09-01T00:57:40.235Z,0.00
2018-09-01T00:58:40.217Z,0.00
2018-09-01T00:59:40.201Z,0.00
2018-09-01T01:00:40.190Z,0.00
2018-09-01T01:01:40.158Z,0.00
2018-09-01T01:02:40.134Z,0.00
2018-09-01T01:03:40.117Z,0.00
2018-09-01T01:04:40.100Z,0.00
2018-09-01T01:05:40.073Z,0.00
2018-09-01T01:06:40.062Z,0.00
2018-09-01T01:07:40.031Z,0.00
2018-09-01T01:08:40.012Z,0.00
2018-09-01T01:09:39.991Z,0.00
2018-09-01T01:10:39.972Z,0.00
2018-09-01T01:11:39.961Z,0.00
2018-09-01T01:12:39.931Z,0.00
2018-09-01T01:13:39.914Z,0.00
2018-09-01T01:14:39.916Z,0.00
2018-09-01T01:15:39.872Z,0.00
2018-09-01T01:16:39.858Z,0.00
2018-09-01T01:17:39.828Z,0.00
2018-09-01T01:18:39.816Z,0.00
2018-09-01T01:19:39.787Z,0.00
2018-09-01T01:20:39.769Z,0.00
2018-09-01T01:21:39.779Z,0.00
2018-09-01T01:22:39.731Z,0.00
2018-09-01T01:23:39.713Z,0.00
2018-09-01T01:24:39.684Z,0.00
2018-09-01T01:25:39.683Z,0.00
2018-09-01T11:27:55.118Z,9964.00
2018-09-01T11:28:55.073Z,10032.00
2018-09-01T11:29:55.057Z,10388.00
2018-09-01T11:30:55.040Z,10536.00
2018-09-01T11:31:55.041Z,10592.00
2018-09-01T11:32:55.011Z,10520.00
2018-09-01T11:33:54.994Z,10404.00
2018-09-01T11:34:54.981Z,10372.00
2018-09-01T11:35:54.971Z,10356.00
2018-09-01T11:36:55.021Z,10364.00
2018-09-01T11:37:54.948Z,10220.00
2018-09-01T11:38:54.921Z,8332.00
2018-09-01T11:39:54.911Z,9692.00
2018-09-01T11:40:54.895Z,10252.00
2018-09-01T11:41:54.885Z,8888.00
2018-09-01T11:42:55.040Z,10252.00
2018-09-01T11:43:54.859Z,9972.00
2018-09-01T11:44:54.846Z,9716.00
2018-09-01T11:45:54.834Z,9604.00
2018-09-01T11:46:54.822Z,9604.00
2018-09-01T11:47:54.806Z,9500.00
2018-09-01T11:48:54.827Z,9284.00
2018-09-01T11:49:54.783Z,9008.00
2018-09-01T11:50:54.771Z,8736.00
2018-09-01T11:51:54.759Z,8564.00
2018-09-01T11:52:54.748Z,8472.00
2018-09-01T11:53:54.768Z,8400.00
2018-09-01T11:54:54.722Z,8380.00
2018-09-01T11:55:54.711Z,8380.00
2018-09-01T11:56:54.698Z,8408.00
2018-09-01T11:57:54.685Z,8452.00
2018-09-01T11:58:54.823Z,8524.00
2018-09-01T11:59:54.682Z,8656.00
2018-09-01T12:00:54.654Z,8780.00
2018-09-01T12:01:54.644Z,8800.00
2018-09-01T12:02:54.630Z,8868.00
2018-09-01T12:03:54.616Z,8932.00
2018-09-01T12:04:54.613Z,9056.00
2018-09-01T12:05:54.595Z,9220.00
2018-09-01T12:06:54.585Z,9404.00
2018-09-01T12:07:54.571Z,9644.00
2018-09-01T12:08:54.679Z,9920.00
2018-09-01T12:09:54.561Z,9564.00
2018-09-01T12:10:54.537Z,9472.00
2018-09-01T12:11:54.525Z,9464.00
2018-09-01T12:12:54.514Z,9472.00
2018-09-01T12:13:54.503Z,9480.00
2018-09-01T12:14:54.494Z,9504.00
2018-09-01T12:15:54.544Z,9508.00
2018-09-01T12:16:54.472Z,9488.00
2018-09-01T12:17:54.459Z,9472.00
2018-09-01T12:18:54.450Z,9572.00
2018-09-01T12:19:54.448Z,9612.00
2018-09-01T12:20:54.441Z,9692.00
2018-09-01T12:21:54.420Z,10076.00
2018-09-01T12:22:54.405Z,10460.00
2018-09-01T12:23:54.395Z,10828.00
2018-09-01T12:24:54.386Z,11612.00
2018-09-01T12:25:54.372Z,15044.00
2018-09-01T12:26:54.373Z,21984.00
2018-09-01T12:27:54.350Z,30112.00
2018-09-01T12:28:54.340Z,38656.00
2018-09-01T12:29:54.329Z,46656.00
2018-09-01T12:30:54.319Z,51584.00
2018-09-01T12:31:54.317Z,67744.00
2018-09-01T12:32:54.297Z,80288.00
2018-09-01T12:33:54.287Z,80736.00
2018-09-01T12:34:54.280Z,79040.00
2018-09-01T12:35:54.265Z,81888.00
2018-09-01T12:36:54.275Z,81792.00
2018-09-01T12:37:54.245Z,81696.00
2018-09-01T12:38:54.237Z,82432.00
2018-09-01T12:39:54.223Z,84256.00
2018-09-01T12:40:54.214Z,80768.00
2018-09-01T12:41:54.255Z,79872.00
2018-09-01T12:42:54.233Z,83872.00
2018-09-01T12:43:54.179Z,84096.00
2018-09-01T12:44:54.170Z,82432.00
2018-09-01T12:45:54.159Z,75616.00
2018-09-01T12:46:54.149Z,77088.00
2018-09-01T12:47:54.140Z,70464.00
2018-09-01T12:48:54.137Z,24768.00
2018-09-01T12:49:54.122Z,13184.00
2018-09-01T12:50:54.109Z,27520.00
2018-09-01T12:51:54.099Z,84736.00
2018-09-01T12:52:54.087Z,79488.00
2018-09-01T12:53:54.112Z,71200.00
2018-09-01T12:54:54.066Z,78880.00
2018-09-01T12:55:54.056Z,81920.00
2018-09-01T12:56:54.046Z,80832.00
2018-09-01T12:57:54.036Z,83648.00
2018-09-01T12:58:54.027Z,31584.00
2018-09-01T12:59:54.032Z,79168.00
2018-09-01T13:00:54.005Z,74208.00
2018-09-01T13:01:53.996Z,73664.00
2018-09-01T13:02:53.986Z,80480.00
2018-09-01T13:03:53.975Z,77536.00
2018-09-01T13:04:53.968Z,73600.00
2018-09-01T13:05:53.967Z,75232.00
2018-09-01T13:06:53.945Z,77024.00
2018-09-01T13:07:53.967Z,82944.00
2018-09-01T13:08:53.924Z,83648.00
2018-09-01T13:09:53.917Z,76352.00
2018-09-01T13:10:53.915Z,75456.00
2018-09-01T13:11:53.895Z,81024.00
2018-09-01T13:12:53.886Z,75584.00
2018-09-01T13:13:53.878Z,69376.00
2018-09-01T13:14:53.874Z,80864.00
2018-09-01T13:15:53.874Z,86752.00
2018-09-01T13:16:53.853Z,78080.00
2018-09-01T13:17:53.839Z,78496.00
2018-09-01T13:18:53.832Z,79392.00
2018-09-01T13:19:53.819Z,65920.00
2018-09-01T13:20:53.814Z,59680.00
2018-09-01T13:21:53.833Z,54272.00
2018-09-01T13:22:53.795Z,47264.00
2018-09-01T13:23:53.788Z,44192.00
2018-09-01T13:24:53.779Z,42688.00
2018-09-01T13:25:53.771Z,38464.00
2018-09-01T13:26:53.772Z,36160.00
2018-09-01T13:27:53.750Z,37056.00
2018-09-01T13:28:53.740Z,32928.00
2018-09-01T13:29:53.732Z,29664.00
2018-09-01T13:30:53.727Z,30336.00
2018-09-01T13:31:53.716Z,32096.00
2018-09-01T13:32:53.715Z,34048.00
2018-09-01T13:33:53.696Z,39648.00
2018-09-01T13:34:53.691Z,51680.00
2018-09-01T13:35:53.681Z,64320.00
2018-09-01T13:36:53.671Z,65280.00
2018-09-01T13:37:53.675Z,55200.00
2018-09-01T13:38:53.674Z,48800.00
2018-09-01T13:39:53.650Z,48320.00
2018-09-01T13:40:53.638Z,50848.00
2018-09-01T13:41:53.630Z,50880.00
2018-09-01T13:42:53.654Z,52000.00
2018-09-01T13:43:53.611Z,54176.00
2018-09-01T13:44:53.603Z,53504.00
2018-09-01T13:45:53.613Z,52928.00
2018-09-01T13:46:53.589Z,58176.00
2018-09-01T13:47:53.581Z,65024.00
2018-09-01T13:48:53.584Z,71392.00
2018-09-01T13:49:53.563Z,68832.00
2018-09-01T13:50:53.554Z,60320.00
2018-09-01T13:51:53.546Z,57120.00
2018-09-01T13:52:53.536Z,59296.00
2018-09-01T13:53:53.560Z,62944.00
2018-09-01T13:54:53.525Z,65408.00
2018-09-01T13:55:53.514Z,68736.00
2018-09-01T13:56:53.504Z,69152.00
2018-09-01T13:57:53.497Z,64096.00
2018-09-01T13:58:53.488Z,60896.00
2018-09-01T13:59:53.493Z,63328.00
2018-09-01T14:00:53.472Z,71168.00
2018-09-01T14:01:53.466Z,72384.00
2018-09-01T14:02:53.461Z,73568.00
2018-09-01T14:03:53.447Z,76000.00
2018-09-01T14:04:53.454Z,67360.00
2018-09-01T14:05:53.437Z,77056.00
2018-09-01T14:06:53.429Z,74272.00
2018-09-01T14:07:53.498Z,76864.00
2018-09-01T14:08:53.413Z,73856.00
2018-09-01T14:09:53.421Z,53312.00
2018-09-01T14:10:53.402Z,71744.00
2018-09-01T14:11:53.393Z,74240.00
2018-09-01T14:12:53.384Z,75968.00
2018-09-01T14:13:53.387Z,69248.00
2018-09-01T14:14:53.566Z,67776.00
2018-09-01T14:15:53.429Z,66496.00
2018-09-01T14:16:53.358Z,71360.00
2018-09-01T14:17:53.352Z,74848.00
2018-09-01T14:18:53.343Z,71104.00
2018-09-01T14:19:53.337Z,67648.00
2018-09-01T14:20:53.342Z,69408.00
2018-09-01T14:21:53.324Z,69056.00
2018-09-01T14:22:53.317Z,73408.00
2018-09-01T14:23:53.310Z,46240.00
2018-09-01T14:24:53.304Z,65664.00
2018-09-01T14:25:53.298Z,70976.00
2018-09-01T14:26:53.299Z,71840.00
2018-09-01T14:27:53.281Z,70368.00
2018-09-01T14:28:53.278Z,76896.00
2018-09-01T14:29:53.270Z,78208.00
2018-09-01T14:30:53.264Z,74848.00
2018-09-01T14:31:53.270Z,74400.00
2018-09-01T14:32:53.272Z,40864.00
2018-09-01T14:33:53.245Z,14032.00
2018-09-01T14:34:53.240Z,13964.00
2018-09-01T14:35:53.228Z,14772.00
2018-09-01T14:36:53.239Z,78560.00
2018-09-01T14:37:53.215Z,73728.00
2018-09-01T14:38:53.210Z,75488.00
2018-09-01T14:39:53.199Z,76736.00
2018-09-01T14:40:53.472Z,71968.00
2018-09-01T14:41:53.186Z,72160.00
2018-09-01T14:42:53.189Z,70496.00
2018-09-01T14:43:53.171Z,68832.00
2018-09-01T14:44:53.168Z,73408.00
2018-09-01T14:45:53.158Z,66112.00
2018-09-01T14:46:53.167Z,71552.00
2018-09-01T14:47:53.158Z,75808.00
2018-09-01T14:48:53.137Z,48736.00
2018-09-01T14:49:53.132Z,21280.00
2018-09-01T14:50:53.126Z,18624.00
2018-09-01T14:51:53.120Z,17152.00
2018-09-01T14:52:53.113Z,59200.00
2018-09-01T14:53:53.113Z,60736.00
2018-09-01T14:54:53.098Z,66528.00
2018-09-01T14:55:53.090Z,63040.00
2018-09-01T14:56:53.084Z,60000.00
2018-09-01T14:57:53.079Z,61888.00
2018-09-01T14:58:53.088Z,60416.00
2018-09-01T14:59:53.063Z,64256.00
2018-09-01T15:00:53.058Z,63648.00
2018-09-01T15:01:53.050Z,64416.00
2018-09-01T15:02:53.043Z,64128.00
2018-09-01T15:03:53.037Z,63648.00
2018-09-01T15:04:53.044Z,64992.00
2018-09-01T15:05:53.029Z,61184.00
2018-09-01T15:06:53.019Z,58048.00
2018-09-01T15:07:53.013Z,56128.00
2018-09-01T15:08:53.006Z,56000.00
2018-09-01T15:09:52.999Z,57600.00
2018-09-01T15:10:53.003Z,62816.00
2018-09-01T15:11:52.987Z,58016.00
2018-09-01T15:12:52.981Z,57568.00
2018-09-01T15:13:52.975Z,63360.00
2018-09-01T15:14:52.971Z,55360.00
2018-09-01T15:15:52.980Z,60352.00
2018-09-01T15:16:52.961Z,62528.00
2018-09-01T15:17:52.959Z,48352.00
2018-09-01T15:18:52.947Z,32800.00
2018-09-01T15:19:52.943Z,16480.00
2018-09-01T15:20:52.938Z,13796.00
2018-09-01T15:21:52.941Z,12940.00
2018-09-01T15:22:52.923Z,12844.00
2018-09-01T15:23:52.917Z,12956.00
2018-09-01T15:24:52.911Z,13084.00
2018-09-01T15:25:52.907Z,13288.00
2018-09-01T15:26:52.907Z,13344.00
2018-09-01T15:27:52.886Z,13232.00
2018-09-01T15:28:52.878Z,13096.00
2018-09-01T15:29:52.874Z,13108.00
2018-09-01T15:30:52.863Z,13496.00
2018-09-01T15:31:52.854Z,13876.00
2018-09-01T15:32:52.857Z,14208.00
2018-09-01T15:33:52.837Z,14528.00
2018-09-01T15:34:52.832Z,14908.00
2018-09-01T15:35:52.820Z,15056.00
2018-09-01T15:36:52.812Z,15308.00
2018-09-01T15:37:52.813Z,16040.00
2018-09-01T15:38:52.791Z,20224.00
2018-09-01T15:39:52.782Z,26176.00
2018-09-01T15:40:52.771Z,34400.00
2018-09-01T15:41:52.765Z,42880.00
2018-09-01T15:42:52.769Z,48576.00
2018-09-01T15:43:52.743Z,47328.00
2018-09-01T15:44:52.759Z,45472.00
2018-09-01T15:45:52.725Z,47168.00
2018-09-01T15:46:52.718Z,44992.00
2018-09-01T15:47:52.708Z,46496.00
2018-09-01T15:48:52.705Z,47296.00
2018-09-01T15:49:52.687Z,29888.00
2018-09-01T15:50:52.679Z,15392.00
2018-09-01T15:51:52.669Z,10916.00
2018-09-01T15:52:52.662Z,10708.00
2018-09-01T15:53:52.700Z,14832.00
2018-09-01T15:54:52.649Z,29760.00
2018-09-01T15:55:52.632Z,42496.00
2018-09-01T15:56:52.625Z,42464.00
2018-09-01T15:57:52.615Z,41024.00
2018-09-01T15:58:52.606Z,40608.00
2018-09-01T15:59:52.612Z,38624.00
2018-09-01T16:00:52.588Z,24608.00
2018-09-01T16:01:52.584Z,25248.00
2018-09-01T16:02:52.573Z,21568.00
2018-09-01T16:03:52.566Z,19968.00
2018-09-01T16:04:52.559Z,16288.00
2018-09-01T16:05:52.544Z,15904.00
2018-09-01T16:06:52.534Z,20864.00
2018-09-01T16:07:52.522Z,21376.00
2018-09-01T16:08:52.509Z,22336.00
2018-09-01T16:09:52.516Z,27968.00
2018-09-01T16:10:52.491Z,32160.00
2018-09-01T16:11:52.481Z,31744.00
2018-09-01T16:12:52.476Z,35680.00
2018-09-01T16:13:52.461Z,34624.00
2018-09-01T16:14:52.454Z,32448.00
2018-09-01T16:15:52.452Z,34784.00
2018-09-01T16:16:52.437Z,32704.00
2018-09-01T16:17:52.429Z,30496.00
2018-09-01T16:18:52.420Z,33184.00
2018-09-01T16:19:52.409Z,32576.00
2018-09-01T16:20:52.433Z,30432.00
2018-09-01T16:21:52.391Z,31840.00
2018-09-01T16:22:52.407Z,30112.00
2018-09-01T16:23:52.376Z,26944.00
2018-09-01T16:24:52.368Z,28800.00
2018-09-01T16:25:52.361Z,29920.00
2018-09-01T16:26:52.365Z,27808.00
2018-09-01T16:27:52.346Z,25184.00
2018-09-01T16:28:52.338Z,16768.00
2018-09-01T16:29:52.331Z,16032.00
2018-09-01T16:30:52.325Z,15264.00
2018-09-01T16:31:52.334Z,20160.00
2018-09-01T16:32:52.308Z,20992.00
2018-09-01T16:33:52.300Z,17120.00
2018-09-01T16:34:52.292Z,18752.00
2018-09-01T16:35:52.303Z,22528.00
2018-09-01T16:36:52.278Z,22784.00
2018-09-01T16:37:52.277Z,25024.00
2018-09-01T16:38:52.262Z,16864.00
2018-09-01T16:39:52.258Z,13856.00
2018-09-01T16:40:52.244Z,11880.00
2018-09-01T16:41:52.237Z,11264.00
2018-09-01T16:42:52.244Z,11424.00
2018-09-01T16:43:52.220Z,12472.00
2018-09-01T16:44:52.219Z,13952.00
2018-09-01T16:45:52.206Z,16448.00
2018-09-01T16:46:52.203Z,17888.00
2018-09-01T16:47:52.185Z,18176.00
2018-09-01T16:48:52.196Z,18624.00
2018-09-01T16:49:52.174Z,18240.00
2018-09-01T16:50:52.168Z,17664.00
2018-09-01T16:51:52.162Z,17344.00
2018-09-01T16:52:52.203Z,16992.00
2018-09-01T16:53:52.151Z,16896.00
2018-09-01T16:54:52.151Z,16672.00
2018-09-01T16:55:52.128Z,16320.00
2018-09-01T16:56:52.125Z,16384.00
2018-09-01T16:57:52.129Z,14048.00
2018-09-01T16:58:52.109Z,9596.00
2018-09-01T16:59:52.145Z,6804.00
2018-09-01T17:00:52.130Z,6160.00
2018-09-01T17:01:52.083Z,5900.00
2018-09-01T17:02:52.111Z,5756.00
2018-09-01T17:03:52.064Z,5668.00
2018-09-01T17:04:52.071Z,5592.00
2018-09-01T17:05:52.048Z,5528.00
2018-09-01T17:06:52.040Z,5456.00
2018-09-01T17:07:52.030Z,5380.00
2018-09-01T17:08:52.019Z,5304.00
2018-09-01T17:09:52.009Z,5232.00
2018-09-01T17:10:52.012Z,5148.00
2018-09-01T17:11:51.994Z,5076.00
2018-09-01T17:12:51.980Z,5000.00
2018-09-01T17:13:51.972Z,4920.00
2018-09-01T17:14:51.964Z,4836.00
2018-09-01T17:15:51.962Z,4752.00
2018-09-01T17:16:51.940Z,4664.00
2018-09-01T17:17:51.927Z,4576.00
2018-09-01T17:18:51.952Z,4492.00
2018-09-01T17:19:51.911Z,4404.00
2018-09-01T17:20:51.893Z,4320.00
2018-09-01T17:21:51.892Z,4236.00
2018-09-01T17:22:51.872Z,4148.00
2018-09-01T17:23:51.863Z,4060.00
2018-09-01T17:24:51.855Z,3972.00
2018-09-01T17:25:51.836Z,3924.00
2018-09-01T17:26:51.834Z,3936.00
2018-09-01T17:27:51.837Z,3844.00
2018-09-01T17:28:51.802Z,3768.00
2018-09-01T17:29:51.790Z,3748.00
2018-09-01T17:30:51.778Z,3796.00
2018-09-01T17:31:51.780Z,3612.00
2018-09-01T17:32:51.805Z,3424.00
2018-09-01T17:33:51.818Z,3264.00
2018-09-01T17:34:51.729Z,3144.00
2018-09-01T17:35:51.719Z,3040.00
2018-09-01T17:36:51.704Z,2952.00
2018-09-01T17:37:51.700Z,2868.00
2018-09-01T17:38:51.677Z,2772.00
2018-09-01T17:39:51.669Z,2692.00
2018-09-01T17:40:51.648Z,2612.00
2018-09-01T17:41:51.639Z,2532.00
2018-09-01T17:42:51.644Z,2448.00
2018-09-01T17:43:51.611Z,2364.00
2018-09-01T17:44:51.599Z,2280.00
2018-09-01T17:45:51.802Z,2196.00
2018-09-01T17:46:51.572Z,2112.00
2018-09-01T17:47:51.562Z,2028.00
2018-09-01T17:48:51.558Z,1944.00
2018-09-01T17:49:51.536Z,1864.00
2018-09-01T17:50:51.522Z,1784.00
2018-09-01T17:51:51.510Z,1700.00
2018-09-01T17:52:51.491Z,1620.00
2018-09-01T17:53:51.498Z,1544.00
2018-09-01T17:54:51.468Z,1468.00
2018-09-01T17:55:51.456Z,1392.00
2018-09-01T17:56:51.439Z,1316.00
2018-09-01T17:57:51.424Z,1244.00
2018-09-01T17:58:51.454Z,1172.00
2018-09-01T17:59:51.397Z,1100.00
2018-09-01T18:00:51.389Z,1032.00
2018-09-01T18:01:51.401Z,964.00
2018-09-01T18:02:51.364Z,904.00
2018-09-01T18:03:51.356Z,840.00
2018-09-01T18:04:51.365Z,776.00
2018-09-01T18:05:51.313Z,704.00
2018-09-01T18:06:51.307Z,636.00
2018-09-01T18:07:51.284Z,588.00
2018-09-01T18:08:51.270Z,552.00
2018-09-01T18:09:51.289Z,520.00
2018-09-01T18:10:51.349Z,488.00
2018-09-01T18:11:51.229Z,452.00
2018-09-01T18:12:51.224Z,420.00
2018-09-01T18:13:51.218Z,384.00
2018-09-01T18:14:51.186Z,352.00
2018-09-01T18:15:51.183Z,320.00
2018-09-01T18:16:51.162Z,292.00
2018-09-01T18:17:51.140Z,264.00
2018-09-01T18:18:51.129Z,240.00
2018-09-01T18:19:51.123Z,216.00
2018-09-01T18:20:51.101Z,192.00
2018-09-01T18:21:51.083Z,172.00
2018-09-01T18:22:51.096Z,156.00
2018-09-01T18:23:51.053Z,140.00
2018-09-01T18:24:51.060Z,124.00
2018-09-01T18:25:51.041Z,112.00
2018-09-01T18:26:51.012Z,96.00
2018-09-01T18:27:50.997Z,84.00
2018-09-01T18:28:50.986Z,76.00
2018-09-01T18:29:50.964Z,68.00
2018-09-01T18:30:50.966Z,60.00
2018-09-01T18:31:50.936Z,52.00
2018-09-01T18:32:50.921Z,44.00
2018-09-01T18:33:50.902Z,36.00
2018-09-01T18:34:50.890Z,32.00
2018-09-01T18:35:50.931Z,28.00
2018-09-01T18:36:50.874Z,20.00
2018-09-01T18:37:50.879Z,20.00
2018-09-01T18:38:50.830Z,16.00
2018-09-01T18:39:50.820Z,12.00
2018-09-01T18:40:50.854Z,12.00
2018-09-01T18:41:50.809Z,8.00
2018-09-01T18:42:50.770Z,8.00
2018-09-01T18:43:50.777Z,4.00
2018-09-01T18:44:50.740Z,4.00
2018-09-01T18:45:50.724Z,4.00
2018-09-01T18:46:50.731Z,4.00
2018-09-01T18:47:50.694Z,4.00
2018-09-01T18:48:50.678Z,0.00
2018-09-01T18:49:50.671Z,4.00
2018-09-01T18:50:50.652Z,4.00
2018-09-01T18:51:50.629Z,0.00
2018-09-01T18:52:50.631Z,0.00
2018-09-01T18:53:50.606Z,0.00
2018-09-01T18:54:50.585Z,0.00
2018-09-01T18:55:50.569Z,0.00
2018-09-01T18:56:50.560Z,0.00
2018-09-01T18:57:50.540Z,0.00
2018-09-01T18:58:50.532Z,0.00
2018-09-01T18:59:50.508Z,0.00
2018-09-01T19:00:50.493Z,0.00
2018-09-01T19:01:50.489Z,0.00
2018-09-01T19:02:50.462Z,0.00
2018-09-01T19:03:50.477Z,0.00
2018-09-01T19:04:50.463Z,0.00
2018-09-01T19:05:50.417Z,0.00
2018-09-01T19:06:50.396Z,0.00
2018-09-01T19:07:50.382Z,0.00
2018-09-01T19:08:50.364Z,0.00
2018-09-01T19:09:50.386Z,0.00
2018-09-01T19:10:50.338Z,0.00
2018-09-01T19:11:50.318Z,0.00
2018-09-01T19:12:50.308Z,0.00
2018-09-01T19:13:50.453Z,0.00
2018-09-01T19:14:50.269Z,0.00
2018-09-01T19:15:50.268Z,0.00
2018-09-01T19:16:50.311Z,0.00
2018-09-01T19:17:50.222Z,0.00
2018-09-01T19:18:50.204Z,0.00
2018-09-01T19:19:50.189Z,0.00
2018-09-01T19:20:50.179Z,0.00
2018-09-01T19:21:50.920Z,0.00
2018-09-01T19:22:50.180Z,0.00
2018-09-01T19:23:50.125Z,0.00
2018-09-01T19:24:50.110Z,0.00
2018-09-01T19:25:50.095Z,0.00
2018-09-01T19:26:50.116Z,0.00
2018-09-01T19:27:50.076Z,0.00
2018-09-01T19:28:50.048Z,0.00
2018-09-01T19:29:50.029Z,0.00
2018-09-01T19:30:50.012Z,0.00
2018-09-01T19:31:50.011Z,0.00
2018-09-01T19:32:50.090Z,0.00
2018-09-01T19:33:49.964Z,0.00
2018-09-01T19:34:49.945Z,0.00
2018-09-01T19:35:49.930Z,0.00
2018-09-01T19:36:49.927Z,0.00
2018-09-01T19:37:49.897Z,0.00
2018-09-01T19:38:49.938Z,0.00
2018-09-01T19:39:49.862Z,0.00
2018-09-01T19:40:49.880Z,0.00
2018-09-01T19:41:49.832Z,0.00
2018-09-01T19:42:49.831Z,0.00
2018-09-01T19:43:49.812Z,0.00
2018-09-01T19:44:49.859Z,0.00
2018-09-01T19:45:49.766Z,0.00
2018-09-01T19:46:49.751Z,0.00
2018-09-01T19:47:49.780Z,0.00
2018-09-01T19:48:49.728Z,0.00
2018-09-01T19:49:49.713Z,0.00
2018-09-01T19:50:49.683Z,0.00
2018-09-01T19:51:49.667Z,0.00
2018-09-01T19:52:49.649Z,0.00
2018-09-01T19:53:49.649Z,0.00
2018-09-01T19:54:49.617Z,0.00
2018-09-01T19:55:49.611Z,0.00
2018-09-01T19:56:49.583Z,0.00
2018-09-01T19:57:49.568Z,0.00
2018-09-01T19:58:49.582Z,0.00
2018-09-01T19:59:49.535Z,0.00
2018-09-01T20:00:49.519Z,0.00
2018-09-01T20:01:49.508Z,0.00
2018-09-01T20:02:49.478Z,0.00
2018-09-01T20:03:49.463Z,0.00
2018-09-01T20:04:49.492Z,0.00
2018-09-01T20:05:49.445Z,0.00
2018-09-01T20:06:49.414Z,0.00
2018-09-01T20:07:49.400Z,0.00
2018-09-01T20:08:49.380Z,0.00
2018-09-01T20:09:49.380Z,0.00
2018-09-01T20:10:49.345Z,0.00
2018-09-01T20:11:49.329Z,0.00
2018-09-01T20:12:49.312Z,0.00
2018-09-01T20:13:49.295Z,0.00
2018-09-01T20:14:49.292Z,0.00
2018-09-01T20:15:49.273Z,0.00
2018-09-01T20:16:49.242Z,0.00
2018-09-01T20:17:49.225Z,0.00
2018-09-01T20:18:49.212Z,0.00
2018-09-01T20:19:49.192Z,0.00
2018-09-01T20:20:49.195Z,0.00
2018-09-01T20:21:49.158Z,0.00
2018-09-01T20:22:49.143Z,0.00
2018-09-01T20:23:49.137Z,0.00
2018-09-01T20:24:49.104Z,0.00
2018-09-01T20:25:49.106Z,0.00
2018-09-01T20:26:49.073Z,0.00
2018-09-01T20:27:49.052Z,0.00
2018-09-01T20:28:49.034Z,0.00
2018-09-01T20:29:49.069Z,0.00
2018-09-01T20:30:49.016Z,0.00
2018-09-01T20:31:49.049Z,0.00
2018-09-01T20:32:48.968Z,0.00
2018-09-01T20:33:48.951Z,0.00
2018-09-01T20:34:48.934Z,0.00
2018-09-01T20:35:48.914Z,0.00
2018-09-01T20:36:48.908Z,0.00
2018-09-01T20:37:48.930Z,0.00
2018-09-01T20:38:48.863Z,0.00
2018-09-01T20:39:48.842Z,0.00
2018-09-01T20:40:48.826Z,0.00
2018-09-01T20:41:48.827Z,0.00
2018-09-01T20:42:48.790Z,0.00
2018-09-01T20:43:48.784Z,0.00
2018-09-01T20:44:48.755Z,0.00
2018-09-01T20:45:48.737Z,0.00
2018-09-01T20:46:48.722Z,0.00
2018-09-01T20:47:48.725Z,0.00
2018-09-01T20:48:48.688Z,0.00
2018-09-01T20:49:48.666Z,0.00
2018-09-01T20:50:48.649Z,0.00
2018-09-01T20:51:48.661Z,0.00
2018-09-01T20:52:48.627Z,0.00
2018-09-01T20:53:48.596Z,0.00
2018-09-01T20:54:48.580Z,0.00
2018-09-01T20:55:48.560Z,0.00
2018-09-01T20:56:48.541Z,0.00
2018-09-01T20:57:48.600Z,0.00
2018-09-01T20:58:48.513Z,0.00
2018-09-01T20:59:48.488Z,0.00
2018-09-01T21:00:48.481Z,0.00
2018-09-01T21:01:48.451Z,0.00
2018-09-01T21:02:48.657Z,0.00
2018-09-01T21:03:48.531Z,0.00
2018-09-01T21:04:48.451Z,0.00
2018-09-01T21:05:48.386Z,0.00
2018-09-01T21:06:48.390Z,0.00
2018-09-01T21:07:48.352Z,0.00
2018-09-01T21:08:48.340Z,0.00
2018-09-01T21:09:48.309Z,0.00
2018-09-01T21:10:48.294Z,0.00
2018-09-01T21:11:48.299Z,0.00
2018-09-01T21:12:48.260Z,0.00
2018-09-01T21:13:48.302Z,0.00
2018-09-01T21:14:48.227Z,0.00
2018-09-01T21:15:48.200Z,0.00
2018-09-01T21:16:48.195Z,0.00
2018-09-01T21:17:48.165Z,0.00
2018-09-01T21:18:48.146Z,0.00
2018-09-01T21:19:48.144Z,0.00
2018-09-01T21:20:48.118Z,0.00
2018-09-01T21:21:48.123Z,0.00
2018-09-01T21:22:48.074Z,0.00
2018-09-01T21:23:48.054Z,0.00
2018-09-01T21:24:48.088Z,0.00
2018-09-01T21:25:48.035Z,0.00
2018-09-01T21:26:48.003Z,0.00
2018-09-01T21:27:47.988Z,0.00
2018-09-01T21:28:47.965Z,0.00
2018-09-01T21:29:47.956Z,0.00
2018-09-01T21:30:47.933Z,0.00
2018-09-01T21:31:47.920Z,0.00
2018-09-01T21:32:47.896Z,0.00
2018-09-01T21:33:47.897Z,0.00
2018-09-01T21:34:47.886Z,0.00
2018-09-01T21:35:47.848Z,0.00
2018-09-01T21:36:47.815Z,0.00
2018-09-01T21:37:47.806Z,0.00
2018-09-01T21:38:47.781Z,0.00
2018-09-01T21:39:47.796Z,0.00
2018-09-01T21:40:47.754Z,0.00
2018-09-01T21:41:47.732Z,0.00
2018-09-01T21:42:47.710Z,0.00
2018-09-01T21:43:47.687Z,0.00
2018-09-01T21:44:47.677Z,0.00
2018-09-01T21:45:47.681Z,0.00
2018-09-01T21:46:47.636Z,0.00
2018-09-01T21:47:47.615Z,0.00
2018-09-01T21:48:47.651Z,0.00
2018-09-01T21:49:47.657Z,0.00
2018-09-01T21:50:47.565Z,0.00
2018-09-01T21:51:47.548Z,0.00
2018-09-01T21:52:47.522Z,0.00
2018-09-01T21:53:47.509Z,0.00
2018-09-01T21:54:47.486Z,0.00
2018-09-01T21:55:47.467Z,0.00
2018-09-01T21:56:47.459Z,0.00
2018-09-01T21:57:47.431Z,0.00
2018-09-01T21:58:47.411Z,0.00
2018-09-01T21:59:47.396Z,0.00
2018-09-01T22:00:47.373Z,0.00
2018-09-01T22:01:47.374Z,0.00
2018-09-01T22:02:47.348Z,0.00
2018-09-01T22:03:47.320Z,0.00
2018-09-01T22:04:47.301Z,0.00
2018-09-01T22:05:47.283Z,0.00
2018-09-01T22:06:47.262Z,0.00
2018-09-01T22:07:47.257Z,0.00
2018-09-01T22:08:47.226Z,0.00
2018-09-01T22:09:47.207Z,0.00
2018-09-01T22:10:47.189Z,0.00
2018-09-01T22:11:47.170Z,0.00
2018-09-01T22:12:47.185Z,0.00
2018-09-01T22:13:47.134Z,0.00
2018-09-01T22:14:47.114Z,0.00
2018-09-01T22:15:47.094Z,0.00
2018-09-01T22:16:47.076Z,0.00
2018-09-01T22:17:47.064Z,0.00
2018-09-01T22:18:47.052Z,0.00
2018-09-01T22:19:47.018Z,0.00
2018-09-01T22:20:47.010Z,0.00
2018-09-01T22:21:46.981Z,0.00
2018-09-01T22:22:46.962Z,0.00
2018-09-01T22:23:46.959Z,0.00
2018-09-01T22:24:46.928Z,0.00
2018-09-01T22:25:46.906Z,0.00
2018-09-01T22:26:46.888Z,0.00
2018-09-01T22:27:46.874Z,0.00
2018-09-01T22:28:46.869Z,0.00